Time;durP1;ratioP1;P1;durP2;ratioP2;P2;SDS_P1;SDS_P2;PMS_P1;PMS_P2;Temp;Humidity;BMP_temperature;BMP_pressure;BME280_temperature;BME280_humidity;BME280_pressure;Samples;Min_cycle;Max_cycle;Signal;HPM_P1;HPM_P2
2021/06/12 00:01:16;;;;;;;7.37;6.87;;;;;;;;;;5076780;28;20433;-80
2021/06/12 00:03:42;;;;;;;7.93;7.40;;;;;;;;;;5076583;28;20497;-80
2021/06/12 00:06:08;;;;;;;8.93;8.03;;;;;;;;;;5074596;28;20836;-80
2021/06/12 00:08:34;;;;;;;8.37;7.73;;;;;;;;;;5075649;28;20429;-80
2021/06/12 00:11:01;;;;;;;8.50;7.70;;;;;;;;;;5075645;28;20410;-80
2021/06/12 00:16:30;;;;;;;7.77;7.07;;;;;;;;;;5078127;28;20461;-80
2021/06/12 00:18:56;;;;;;;8.87;7.97;;;;;;;;;;5078039;28;20418;-79
2021/06/12 00:21:22;;;;;;;8.80;8.10;;;;;;;;;;5079326;28;20432;-79
2021/06/12 00:23:48;;;;;;;8.07;7.30;;;;;;;;;;5078852;28;20500;-80
2021/06/12 00:26:14;;;;;;;8.20;7.60;;;;;;;;;;5079065;28;20761;-80
2021/06/12 00:31:44;;;;;;;8.60;7.90;;;;;;;;;;5079888;28;20425;-77
2021/06/12 00:34:10;;;;;;;8.60;7.73;;;;;;;;;;5078817;28;20434;-77
2021/06/12 00:36:36;;;;;;;8.80;8.10;;;;;;;;;;5077159;28;20875;-78
2021/06/12 00:39:03;;;;;;;8.13;7.43;;;;;;;;;;5076625;28;20461;-79
2021/06/12 00:41:29;;;;;;;9.20;8.30;;;;;;;;;;5076234;28;20900;-81
2021/06/12 00:43:55;;;;;;;8.77;7.87;;;;;;;;;;5075636;28;20462;-80
2021/06/12 00:46:21;;;;;;;9.70;8.90;;;;;;;;;;5075339;28;20438;-81
2021/06/12 00:48:47;;;;;;;9.40;8.40;;;;;;;;;;5075082;28;20714;-78
2021/06/12 00:51:13;;;;;;;9.40;8.60;;;;;;;;;;5074690;28;20410;-81
2021/06/12 00:53:42;;;;;;;9.23;8.53;;;;;;;;;;5074974;28;20425;-80
2021/06/12 00:56:12;;;;;;;9.53;8.73;;;;;;;;;;5074611;28;20408;-79
2021/06/12 01:01:42;;;;;;;9.67;8.87;;;;;;;;;;5074489;28;20476;-79
2021/06/12 01:04:09;;;;;;;10.03;9.33;;;;;;;;;;5074346;28;20488;-81
2021/06/12 01:06:35;;;;;;;8.87;8.17;;;;;;;;;;5074985;28;20496;-79
2021/06/12 01:09:01;;;;;;;15.73;9.07;;;;;;;;;;5074729;28;20450;-78
2021/06/12 01:11:27;;;;;;;10.17;9.40;;;;;;;;;;5075101;28;20902;-81
2021/06/12 01:17:06;;;;;;;10.70;9.80;;;;;;;;;;5073746;28;20829;-81
2021/06/12 01:19:47;;;;;;;10.23;9.37;;;;;;;;;;5073538;28;20421;-80
2021/06/12 01:22:15;;;;;;;10.53;9.53;;;;;;;;;;5073255;28;20414;-79
2021/06/12 01:24:56;;;;;;;9.13;8.33;;;;;;;;;;5073682;28;20422;-80
2021/06/12 01:27:41;;;;;;;10.43;9.57;;;;;;;;;;5073343;28;20402;-80
2021/06/12 01:30:24;;;;;;;9.70;8.80;;;;;;;;;;5073065;28;20466;-81
2021/06/12 01:32:53;;;;;;;9.43;8.73;;;;;;;;;;5073156;28;20417;-80
2021/06/12 01:35:30;;;;;;;9.27;8.47;;;;;;;;;;5073028;28;20535;-80
2021/06/12 01:37:57;;;;;;;10.90;10.00;;;;;;;;;;5073294;28;20410;-82
2021/06/12 01:40:24;;;;;;;11.73;10.87;;;;;;;;;;5073057;28;20450;-80
2021/06/12 01:42:51;;;;;;;11.43;10.53;;;;;;;;;;5072759;28;20578;-80
2021/06/12 01:45:17;;;;;;;12.00;10.90;;;;;;;;;;5073416;28;20414;-79
2021/06/12 01:47:43;;;;;;;11.57;10.40;;;;;;;;;;5073489;28;20402;-79
2021/06/12 01:50:11;;;;;;;12.07;11.07;;;;;;;;;;5071694;28;20434;-80
2021/06/12 01:52:40;;;;;;;12.57;11.40;;;;;;;;;;5073351;28;20788;-80
2021/06/12 01:55:07;;;;;;;11.97;11.07;;;;;;;;;;5071983;28;20409;-80
2021/06/12 01:57:33;;;;;;;12.00;10.80;;;;;;;;;;5072820;28;20446;-81
2021/06/12 01:59:59;;;;;;;12.50;11.47;;;;;;;;;;5073178;28;20551;-80
2021/06/12 02:02:25;;;;;;;12.90;11.80;;;;;;;;;;5072718;28;20410;-79
2021/06/12 02:04:51;;;;;;;12.10;11.13;;;;;;;;;;5073196;28;20575;-78
2021/06/12 02:07:18;;;;;;;12.30;11.07;;;;;;;;;;5073374;28;20418;-80
2021/06/12 02:09:47;;;;;;;13.27;12.07;;;;;;;;;;5073721;28;20418;-80
2021/06/12 02:12:13;;;;;;;13.20;12.20;;;;;;;;;;5073757;28;20486;-79
2021/06/12 02:14:40;;;;;;;13.10;11.90;;;;;;;;;;5073115;28;20613;-79
2021/06/12 02:17:06;;;;;;;12.20;11.23;;;;;;;;;;5073400;28;20417;-79
2021/06/12 02:19:35;;;;;;;13.50;12.40;;;;;;;;;;5072885;28;20418;-80
2021/06/12 02:22:01;;;;;;;12.07;11.07;;;;;;;;;;5073516;28;20772;-80
2021/06/12 02:24:28;;;;;;;12.90;11.70;;;;;;;;;;5071655;28;20480;-80
2021/06/12 02:26:54;;;;;;;13.77;12.57;;;;;;;;;;5073427;28;20402;-78
2021/06/12 02:32:24;;;;;;;13.03;11.93;;;;;;;;;;5077358;28;20765;-78
2021/06/12 02:34:50;;;;;;;12.77;11.57;;;;;;;;;;5076715;28;20445;-80
2021/06/12 02:37:17;;;;;;;11.50;10.50;;;;;;;;;;5076984;28;20420;-81
2021/06/12 02:39:43;;;;;;;11.70;10.80;;;;;;;;;;5076757;28;20409;-80
2021/06/12 02:42:09;;;;;;;11.40;10.50;;;;;;;;;;5077207;28;20418;-79
2021/06/12 02:44:35;;;;;;;11.57;10.47;;;;;;;;;;5076830;28;20473;-79
2021/06/12 02:47:05;;;;;;;11.37;10.47;;;;;;;;;;5076808;28;20410;-79
2021/06/12 02:49:34;;;;;;;11.73;10.63;;;;;;;;;;5076289;28;20800;-81
2021/06/12 02:52:02;;;;;;;13.27;11.00;;;;;;;;;;5076707;28;20414;-78
2021/06/12 02:54:28;;;;;;;11.77;10.67;;;;;;;;;;5076929;28;20448;-79
2021/06/12 02:56:55;;;;;;;12.90;11.60;;;;;;;;;;5076175;28;20410;-80
2021/06/12 03:02:25;;;;;;;11.57;10.57;;;;;;;;;;5075842;28;20491;-80
2021/06/12 03:04:52;;;;;;;11.23;10.30;;;;;;;;;;5075957;28;20919;-80
2021/06/12 03:07:19;;;;;;;12.70;11.50;;;;;;;;;;5076146;28;20450;-79
2021/06/12 03:09:45;;;;;;;12.43;11.43;;;;;;;;;;5074813;28;20430;-78
2021/06/12 03:12:13;;;;;;;11.97;11.07;;;;;;;;;;5076347;28;20410;-78
2021/06/12 03:14:41;;;;;;;11.90;10.80;;;;;;;;;;5076482;28;20414;-79
2021/06/12 03:17:08;;;;;;;15.00;12.67;;;;;;;;;;5076583;28;20418;-79
2021/06/12 03:19:35;;;;;;;13.30;12.07;;;;;;;;;;5076106;28;20501;-78
2021/06/12 03:22:01;;;;;;;13.20;12.20;;;;;;;;;;5076253;28;20410;-80
2021/06/12 03:24:28;;;;;;;12.23;11.33;;;;;;;;;;5075950;28;20561;-82
2021/06/12 03:26:59;;;;;;;12.63;11.60;;;;;;;;;;5075925;28;20889;-79
2021/06/12 03:32:29;;;;;;;11.73;10.53;;;;;;;;;;5075494;28;20451;-79
2021/06/12 03:34:55;;;;;;;11.43;10.60;;;;;;;;;;5074597;28;20585;-80
2021/06/12 03:37:21;;;;;;;11.70;10.60;;;;;;;;;;5075759;28;20418;-80
2021/06/12 03:39:47;;;;;;;10.80;9.90;;;;;;;;;;5076049;28;20455;-80
2021/06/12 03:42:14;;;;;;;11.37;10.47;;;;;;;;;;5075850;28;20406;-78
2021/06/12 03:47:43;;;;;;;10.70;9.80;;;;;;;;;;5075474;28;20412;-78
2021/06/12 03:50:11;;;;;;;11.50;10.50;;;;;;;;;;5075749;28;20433;-78
2021/06/12 03:52:37;;;;;;;12.07;10.90;;;;;;;;;;5075689;28;20407;-79
2021/06/12 03:55:04;;;;;;;11.30;10.43;;;;;;;;;;5074304;28;20422;-79
2021/06/12 03:57:30;;;;;;;12.73;11.63;;;;;;;;;;5074780;28;20414;-79
2021/06/12 03:59:56;;;;;;;11.50;10.70;;;;;;;;;;5075708;28;20410;-78
2021/06/12 04:02:24;;;;;;;11.30;10.27;;;;;;;;;;5075297;28;20493;-80
2021/06/12 04:04:50;;;;;;;12.00;10.80;;;;;;;;;;5074088;28;20481;-79
2021/06/12 04:07:19;;;;;;;13.07;11.97;;;;;;;;;;5075452;28;20410;-82
2021/06/12 04:09:45;;;;;;;12.87;11.87;;;;;;;;;;5075457;28;20436;-78
2021/06/12 04:12:13;;;;;;;13.27;12.17;;;;;;;;;;5075558;28;20508;-81
2021/06/12 04:17:46;;;;;;;12.03;11.03;;;;;;;;;;5075328;28;20457;-80
2021/06/12 04:20:13;;;;;;;12.37;11.27;;;;;;;;;;5075324;28;20510;-82
2021/06/12 04:22:40;;;;;;;12.90;11.60;;;;;;;;;;5075410;28;20457;-81
2021/06/12 04:25:06;;;;;;;13.93;12.83;;;;;;;;;;5074956;28;20497;-80
2021/06/12 04:27:33;;;;;;;12.77;11.77;;;;;;;;;;5075505;28;20402;-81
2021/06/12 04:33:03;;;;;;;13.27;11.97;;;;;;;;;;5074698;28;20498;-79
2021/06/12 04:35:30;;;;;;;14.13;13.03;;;;;;;;;;5074262;28;20520;-79
2021/06/12 04:38:00;;;;;;;13.00;11.80;;;;;;;;;;5073437;28;20483;-79
2021/06/12 04:40:26;;;;;;;14.20;13.00;;;;;;;;;;5074627;28;20497;-79
2021/06/12 04:42:52;;;;;;;15.63;14.03;;;;;;;;;;5074584;28;20461;-80
2021/06/12 04:45:18;;;;;;;15.37;13.87;;;;;;;;;;5074639;28;20876;-81
2021/06/12 04:47:44;;;;;;;14.03;12.83;;;;;;;;;;5074657;28;20410;-78
2021/06/12 04:50:11;;;;;;;15.07;13.67;;;;;;;;;;5074214;28;20581;-78
2021/06/12 04:52:38;;;;;;;14.03;12.70;;;;;;;;;;5074394;28;20499;-79
2021/06/12 04:55:05;;;;;;;15.80;14.40;;;;;;;;;;5074007;28;20410;-80
2021/06/12 04:57:31;;;;;;;14.23;12.93;;;;;;;;;;5073914;28;20407;-79
2021/06/12 05:03:01;;;;;;;14.13;12.63;;;;;;;;;;5071716;28;20518;-80
2021/06/12 05:05:27;;;;;;;14.00;12.80;;;;;;;;;;5071931;28;20422;-79
2021/06/12 05:07:52;;;;;;;13.60;12.50;;;;;;;;;;5072682;28;20426;-78
2021/06/12 05:10:18;;;;;;;13.30;12.00;;;;;;;;;;5072543;28;20977;-79
2021/06/12 05:12:44;;;;;;;12.00;10.87;;;;;;;;;;5072670;28;20415;-80
2021/06/12 05:18:16;;;;;;;11.00;9.90;;;;;;;;;;5072107;28;20412;-81
2021/06/12 05:20:42;;;;;;;10.90;10.00;;;;;;;;;;5072405;28;20410;-80
2021/06/12 05:23:08;;;;;;;11.50;10.50;;;;;;;;;;5072599;28;20982;-79
2021/06/12 05:25:36;;;;;;;12.37;11.07;;;;;;;;;;5072962;28;20413;-80
2021/06/12 05:28:02;;;;;;;11.07;10.17;;;;;;;;;;5071713;28;20434;-81
2021/06/12 05:30:28;;;;;;;10.67;9.77;;;;;;;;;;5073614;28;20448;-79
2021/06/12 05:32:54;;;;;;;12.40;11.20;;;;;;;;;;5073045;28;20418;-80
2021/06/12 05:35:21;;;;;;;11.53;10.63;;;;;;;;;;5072643;28;20464;-80
2021/06/12 05:37:47;;;;;;;11.87;10.83;;;;;;;;;;5071765;28;20454;-80
2021/06/12 05:40:13;;;;;;;11.80;10.90;;;;;;;;;;5071560;28;20430;-79
2021/06/12 05:42:39;;;;;;;11.40;10.50;;;;;;;;;;5073100;28;20425;-79
2021/06/12 05:45:07;;;;;;;11.57;10.57;;;;;;;;;;5072753;28;20429;-79
2021/06/12 05:47:33;;;;;;;12.47;11.27;;;;;;;;;;5072005;28;20761;-79
2021/06/12 05:49:59;;;;;;;11.70;10.60;;;;;;;;;;5069848;28;20790;-80
2021/06/12 05:52:24;;;;;;;13.13;11.83;;;;;;;;;;5072517;28;20488;-79
2021/06/12 05:54:50;;;;;;;13.20;11.10;;;;;;;;;;5072534;28;20417;-78
2021/06/12 05:57:16;;;;;;;13.67;12.50;;;;;;;;;;5071262;28;20426;-79
2021/06/12 05:59:42;;;;;;;11.40;10.40;;;;;;;;;;5072609;28;20426;-78
2021/06/12 06:02:08;;;;;;;12.30;10.27;;;;;;;;;;5071632;28;20436;-80
2021/06/12 06:04:34;;;;;;;14.53;10.93;;;;;;;;;;5071397;28;20476;-81
2021/06/12 06:07:03;;;;;;;11.50;10.57;;;;;;;;;;5072327;28;20457;-81
2021/06/12 06:09:29;;;;;;;8.53;7.83;;;;;;;;;;5072710;28;20410;-81
2021/06/12 06:11:55;;;;;;;9.30;8.50;;;;;;;;;;5072430;28;20492;-79
2021/06/12 06:14:21;;;;;;;9.20;8.60;;;;;;;;;;5072397;28;20480;-79
2021/06/12 06:16:47;;;;;;;8.97;8.23;;;;;;;;;;5072920;28;20414;-80
2021/06/12 06:19:13;;;;;;;8.67;7.87;;;;;;;;;;5072513;28;20422;-78
2021/06/12 06:21:39;;;;;;;9.33;8.60;;;;;;;;;;5073217;28;20531;-80
2021/06/12 06:24:06;;;;;;;8.93;8.33;;;;;;;;;;5072590;28;20473;-80
2021/06/12 06:26:32;;;;;;;9.90;9.00;;;;;;;;;;5073143;28;20402;-79
2021/06/12 06:28:58;;;;;;;8.73;7.93;;;;;;;;;;5072514;28;20406;-79
2021/06/12 06:31:24;;;;;;;9.40;8.40;;;;;;;;;;5072820;28;20414;-80
2021/06/12 06:33:50;;;;;;;9.17;8.50;;;;;;;;;;5072774;28;20410;-78
2021/06/12 06:36:17;;;;;;;9.07;8.47;;;;;;;;;;5072493;28;20484;-79
2021/06/12 06:38:43;;;;;;;8.83;8.20;;;;;;;;;;5072436;28;20403;-81
2021/06/12 06:41:09;;;;;;;8.20;7.60;;;;;;;;;;5072421;28;20939;-80
2021/06/12 06:43:36;;;;;;;9.40;8.60;;;;;;;;;;5072315;28;20577;-79
2021/06/12 06:49:06;;;;;;;9.37;8.63;;;;;;;;;;5072379;28;20748;-79
2021/06/12 06:51:32;;;;;;;7.60;6.90;;;;;;;;;;5072474;28;20414;-78
2021/06/12 06:53:58;;;;;;;8.60;7.93;;;;;;;;;;5072586;28;20406;-79
2021/06/12 06:56:24;;;;;;;8.07;7.47;;;;;;;;;;5072675;28;20771;-78
2021/06/12 06:58:50;;;;;;;8.37;7.73;;;;;;;;;;5072587;28;20406;-78
2021/06/12 07:01:16;;;;;;;8.63;7.77;;;;;;;;;;5072514;28;20414;-77
2021/06/12 07:03:42;;;;;;;8.47;7.77;;;;;;;;;;5072447;28;20469;-79
2021/06/12 07:06:08;;;;;;;8.00;7.40;;;;;;;;;;5072864;28;20411;-79
2021/06/12 07:08:34;;;;;;;9.20;8.37;;;;;;;;;;5072538;28;20414;-80
2021/06/12 07:11:01;;;;;;;8.77;8.07;;;;;;;;;;5072705;28;20417;-78
2021/06/12 07:13:27;;;;;;;6.97;6.47;;;;;;;;;;5072436;28;20410;-79
2021/06/12 07:18:57;;;;;;;7.13;6.50;;;;;;;;;;5075812;28;20416;-79
2021/06/12 07:21:23;;;;;;;7.07;6.57;;;;;;;;;;5075677;28;20526;-80
2021/06/12 07:23:49;;;;;;;7.10;6.60;;;;;;;;;;5075737;28;20476;-79
2021/06/12 07:26:15;;;;;;;8.20;7.60;;;;;;;;;;5076115;28;20457;-80
2021/06/12 07:28:41;;;;;;;7.47;6.97;;;;;;;;;;5075907;28;20422;-78
2021/06/12 07:34:11;;;;;;;7.90;7.30;;;;;;;;;;5075390;28;20467;-77
2021/06/12 07:36:40;;;;;;;7.47;6.73;;;;;;;;;;5075335;28;20515;-78
2021/06/12 07:39:06;;;;;;;6.80;6.40;;;;;;;;;;5075447;28;20456;-78
2021/06/12 07:41:33;;;;;;;8.30;6.73;;;;;;;;;;5075707;28;20464;-81
2021/06/12 07:49:48;;;;;;;6.90;6.30;;;;;;;;;;5075213;28;20412;-78
2021/06/12 07:52:14;;;;;;;6.57;5.93;;;;;;;;;;5075998;28;20511;-79
2021/06/12 07:54:40;;;;;;;6.23;5.83;;;;;;;;;;5075544;28;20769;-80
2021/06/12 07:57:06;;;;;;;6.20;5.70;;;;;;;;;;5075463;28;20425;-77
2021/06/12 07:59:32;;;;;;;5.70;5.30;;;;;;;;;;5074331;28;20892;-78
2021/06/12 08:01:59;;;;;;;6.33;5.83;;;;;;;;;;5075158;28;20417;-79
2021/06/12 08:04:25;;;;;;;6.20;5.60;;;;;;;;;;5075015;28;20501;-78
2021/06/12 08:06:51;;;;;;;6.43;5.67;;;;;;;;;;5074592;28;20460;-78
2021/06/12 08:09:18;;;;;;;5.50;5.10;;;;;;;;;;5075014;28;20406;-78
2021/06/12 08:11:44;;;;;;;5.37;4.87;;;;;;;;;;5075181;28;20475;-78
2021/06/12 08:14:10;;;;;;;5.90;5.40;;;;;;;;;;5074342;28;20482;-76
2021/06/12 08:16:36;;;;;;;4.87;4.47;;;;;;;;;;5074818;28;20434;-80
2021/06/12 08:19:02;;;;;;;4.40;4.00;;;;;;;;;;5074728;28;20417;-77
2021/06/12 08:21:28;;;;;;;4.50;4.10;;;;;;;;;;5072917;28;20606;-82
2021/06/12 08:23:54;;;;;;;4.20;3.90;;;;;;;;;;5074410;28;20770;-81
2021/06/12 08:26:20;;;;;;;4.70;4.30;;;;;;;;;;5073969;28;20410;-79
2021/06/12 08:28:47;;;;;;;4.20;3.90;;;;;;;;;;5073739;28;20421;-80
2021/06/12 08:34:16;;;;;;;4.60;4.20;;;;;;;;;;5073933;28;20406;-77
2021/06/12 08:36:42;;;;;;;4.13;3.70;;;;;;;;;;5056359;28;20426;-79
2021/06/12 08:39:08;;;;;;;4.07;3.87;;;;;;;;;;5074332;28;20484;-77
2021/06/12 08:41:34;;;;;;;5.90;4.33;;;;;;;;;;5074050;28;20490;-79
2021/06/12 08:44:01;;;;;;;4.90;4.60;;;;;;;;;;5072487;28;20462;-78
2021/06/12 08:49:31;;;;;;;4.00;3.70;;;;;;;;;;5073352;28;20468;-80
2021/06/12 08:51:57;;;;;;;4.10;3.80;;;;;;;;;;5073822;28;20429;-78
2021/06/12 08:54:27;;;;;;;3.53;3.20;;;;;;;;;;5072280;28;20418;-78
2021/06/12 08:56:53;;;;;;;5.50;3.20;;;;;;;;;;5073779;28;20611;-78
2021/06/12 08:59:19;;;;;;;3.93;3.50;;;;;;;;;;5073525;28;20479;-79
2021/06/12 09:04:53;;;;;;;3.90;3.60;;;;;;;;;;5073189;28;20523;-79
2021/06/12 09:07:28;;;;;;;3.60;3.30;;;;;;;;;;5073283;28;20418;-79
2021/06/12 09:09:55;;;;;;;3.40;3.20;;;;;;;;;;5073479;28;20506;-80
2021/06/12 09:12:21;;;;;;;3.63;3.43;;;;;;;;;;5073732;28;20413;-77
2021/06/12 09:15:06;;;;;;;4.10;3.70;;;;;;;;;;5073555;28;20460;-82
2021/06/12 09:17:42;;;;;;;3.30;2.80;;;;;;;;;;5070866;28;20414;-76
2021/06/12 09:20:09;;;;;;;4.40;2.93;;;;;;;;;;5072786;28;20471;-73
2021/06/12 09:22:35;;;;;;;3.30;3.00;;;;;;;;;;5072151;28;20492;-73
2021/06/12 09:25:01;;;;;;;4.73;4.00;;;;;;;;;;5071539;28;20414;-74
2021/06/12 09:27:27;;;;;;;5.10;4.70;;;;;;;;;;5070393;28;20507;-75
2021/06/12 09:32:57;;;;;;;5.00;4.60;;;;;;;;;;5071289;28;20413;-73
2021/06/12 09:35:30;;;;;;;5.63;5.00;;;;;;;;;;5071191;28;20454;-74
2021/06/12 09:37:56;;;;;;;5.00;4.67;;;;;;;;;;5071777;28;20912;-74
2021/06/12 09:40:22;;;;;;;4.60;4.20;;;;;;;;;;5070336;28;20441;-74
2021/06/12 09:42:50;;;;;;;3.87;3.40;;;;;;;;;;5071590;28;20457;-75
2021/06/12 09:48:20;;;;;;;3.43;2.73;;;;;;;;;;5071548;28;20413;-75
2021/06/12 09:50:47;;;;;;;4.53;3.10;;;;;;;;;;5071512;28;20525;-74
2021/06/12 09:53:14;;;;;;;3.00;2.80;;;;;;;;;;5071571;28;20422;-75
2021/06/12 09:55:41;;;;;;;2.97;2.77;;;;;;;;;;5071200;28;20402;-77
2021/06/12 09:58:07;;;;;;;3.10;2.90;;;;;;;;;;5072010;28;20517;-79
2021/06/12 10:03:36;;;;;;;2.97;2.77;;;;;;;;;;5071938;28;21017;-76
2021/06/12 10:06:10;;;;;;;2.53;2.33;;;;;;;;;;5070198;28;20430;-76
2021/06/12 10:08:36;;;;;;;4.13;2.87;;;;;;;;;;5071925;28;20453;-78
2021/06/12 10:11:03;;;;;;;3.23;3.03;;;;;;;;;;5072082;28;20414;-79
2021/06/12 10:13:30;;;;;;;3.50;3.20;;;;;;;;;;5072164;28;20445;-77
2021/06/12 10:19:00;;;;;;;3.60;3.30;;;;;;;;;;5072836;28;20809;-80
2021/06/12 10:21:26;;;;;;;2.50;2.30;;;;;;;;;;5070799;28;20736;-80
2021/06/12 10:23:52;;;;;;;3.20;2.50;;;;;;;;;;5071262;28;20492;-80
2021/06/12 10:26:19;;;;;;;3.10;2.87;;;;;;;;;;5073304;28;20425;-82
2021/06/12 10:28:45;;;;;;;5.43;2.87;;;;;;;;;;5072877;28;20414;-79
2021/06/12 10:34:15;;;;;;;3.03;2.83;;;;;;;;;;5069781;28;20569;-79
2021/06/12 10:36:56;;;;;;;6.83;2.80;;;;;;;;;;5071353;28;20865;-74
2021/06/12 10:39:30;;;;;;;2.97;2.77;;;;;;;;;;5071437;28;20424;-78
2021/06/12 10:42:16;;;;;;;3.37;2.83;;;;;;;;;;5072746;28;20426;-80
2021/06/12 10:44:43;;;;;;;3.03;2.83;;;;;;;;;;5075261;28;20477;-78
2021/06/12 10:50:25;;;;;;;3.13;2.83;;;;;;;;;;5073250;28;20417;-78
2021/06/12 10:52:51;;;;;;;2.53;2.33;;;;;;;;;;5076516;28;20433;-79
2021/06/12 10:55:47;;;;;;;2.60;2.40;;;;;;;;;;5076586;28;20430;-79
2021/06/12 10:58:31;;;;;;;3.67;3.07;;;;;;;;;;5080365;28;20597;-80
2021/06/12 11:01:13;;;;;;;2.93;2.73;;;;;;;;;;5076354;28;20969;-79
2021/06/12 11:03:52;;;;;;;3.07;2.77;;;;;;;;;;5075512;28;20473;-76
2021/06/12 11:09:13;;;;;;;2.33;2.10;;;;;;;;;;5077063;28;20899;-80
2021/06/12 11:11:43;;;;;;;3.20;2.90;;;;;;;;;;5076579;28;20446;-77
2021/06/12 11:14:21;;;;;;;2.80;2.60;;;;;;;;;;5076486;28;20409;-78
2021/06/12 11:19:36;;;;;;;2.77;2.57;;;;;;;;;;5076539;28;20449;-79
2021/06/12 11:22:20;;;;;;;2.63;2.43;;;;;;;;;;5074784;28;20479;-77
2021/06/12 11:24:46;;;;;;;3.03;2.70;;;;;;;;;;5076076;28;20476;-77
2021/06/12 11:27:26;;;;;;;2.93;2.73;;;;;;;;;;5073247;28;20532;-80
2021/06/12 11:30:10;;;;;;;3.00;2.80;;;;;;;;;;5075759;28;20901;-79
2021/06/12 11:32:37;;;;;;;2.50;2.27;;;;;;;;;;5075882;28;20441;-77
2021/06/12 11:35:03;;;;;;;3.13;2.73;;;;;;;;;;5073994;28;20501;-77
2021/06/12 11:37:29;;;;;;;3.40;3.10;;;;;;;;;;5073092;28;20772;-77
2021/06/12 11:39:56;;;;;;;2.70;2.50;;;;;;;;;;5075726;28;20418;-80
2021/06/12 11:42:23;;;;;;;3.60;2.50;;;;;;;;;;5074351;28;20524;-76
2021/06/12 11:44:49;;;;;;;2.33;2.20;;;;;;;;;;5075517;28;20462;-77
2021/06/12 11:47:25;;;;;;;2.80;2.60;;;;;;;;;;5075283;28;20406;-81
2021/06/12 11:49:51;;;;;;;2.70;2.50;;;;;;;;;;5073632;28;20761;-69
2021/06/12 11:52:17;;;;;;;2.33;2.10;;;;;;;;;;5073914;28;20406;-69
2021/06/12 11:54:43;;;;;;;2.53;2.30;;;;;;;;;;5073228;28;20413;-70
2021/06/12 11:57:10;;;;;;;2.23;2.00;;;;;;;;;;5072290;28;20430;-68
2021/06/12 11:59:36;;;;;;;2.77;2.20;;;;;;;;;;5072550;28;20403;-67
2021/06/12 12:02:06;;;;;;;2.40;2.30;;;;;;;;;;5071902;28;20747;-69
2021/06/12 12:04:33;;;;;;;2.13;2.03;;;;;;;;;;5072478;28;20472;-69
2021/06/12 12:06:59;;;;;;;2.40;2.10;;;;;;;;;;5072716;28;20817;-70
2021/06/12 12:09:25;;;;;;;2.40;2.17;;;;;;;;;;5070950;28;20421;-70
2021/06/12 12:11:55;;;;;;;1.83;1.73;;;;;;;;;;5073650;28;20402;-70
2021/06/12 12:14:28;;;;;;;1.73;1.63;;;;;;;;;;5073588;28;20428;-69
2021/06/12 12:16:54;;;;;;;4.73;2.03;;;;;;;;;;5072005;28;20421;-70
2021/06/12 12:19:21;;;;;;;2.23;2.03;;;;;;;;;;5073304;28;20474;-69
2021/06/12 12:21:49;;;;;;;2.37;1.87;;;;;;;;;;5071999;28;20469;-69
2021/06/12 12:24:15;;;;;;;2.00;1.90;;;;;;;;;;5073321;28;20470;-68
2021/06/12 12:27:10;;;;;;;2.10;1.60;;;;;;;;;;5073484;28;20847;-69
2021/06/12 12:29:40;;;;;;;2.47;1.67;;;;;;;;;;5077015;28;20792;-69
2021/06/12 12:32:07;;;;;;;5.70;2.20;;;;;;;;;;5073052;28;20430;-70
2021/06/12 12:34:36;;;;;;;1.77;1.67;;;;;;;;;;5072698;28;20411;-70
2021/06/12 12:37:02;;;;;;;2.20;2.10;;;;;;;;;;5073396;28;20475;-69
2021/06/12 12:39:41;;;;;;;2.60;1.87;;;;;;;;;;5073146;28;20472;-69
2021/06/12 12:42:08;;;;;;;1.90;1.80;;;;;;;;;;5071385;28;20472;-70
2021/06/12 12:44:34;;;;;;;3.23;1.90;;;;;;;;;;5072770;28;20473;-67
2021/06/12 12:47:00;;;;;;;1.87;1.67;;;;;;;;;;5070661;28;20429;-69
2021/06/12 12:49:28;;;;;;;2.03;1.77;;;;;;;;;;5070565;28;20437;-70
2021/06/12 12:52:04;;;;;;;2.10;1.90;;;;;;;;;;5071692;28;20445;-70
2021/06/12 12:54:35;;;;;;;2.10;1.90;;;;;;;;;;5072667;28;20414;-69
2021/06/12 12:57:08;;;;;;;2.60;1.70;;;;;;;;;;5072532;28;20885;-70
2021/06/12 12:59:34;;;;;;;2.00;1.90;;;;;;;;;;5071291;28;20426;-70
2021/06/12 13:02:00;;;;;;;2.30;2.10;;;;;;;;;;5072578;28;20417;-71
2021/06/12 13:04:30;;;;;;;1.93;1.67;;;;;;;;;;5072212;28;20516;-68
2021/06/12 13:07:22;;;;;;;1.40;1.30;;;;;;;;;;5072535;28;20761;-68
2021/06/12 13:10:04;;;;;;;3.17;1.50;;;;;;;;;;5071727;28;20940;-69
2021/06/12 13:12:31;;;;;;;2.63;1.40;;;;;;;;;;5072116;28;20414;-69
2021/06/12 13:15:07;;;;;;;4.37;1.67;;;;;;;;;;5072152;28;20414;-77
2021/06/12 13:17:33;;;;;;;6.40;1.50;;;;;;;;;;5072539;28;20410;-68
2021/06/12 13:20:02;;;;;;;1.40;1.27;;;;;;;;;;5071922;28;20410;-67
2021/06/12 13:22:31;;;;;;;2.20;1.33;;;;;;;;;;5070558;28;20831;-69
2021/06/12 13:25:12;;;;;;;1.50;1.40;;;;;;;;;;5071821;28;20514;-69
2021/06/12 13:27:52;;;;;;;1.70;1.60;;;;;;;;;;5072221;28;20467;-70
2021/06/12 13:30:18;;;;;;;1.50;1.40;;;;;;;;;;5071921;28;20453;-71
2021/06/12 13:32:50;;;;;;;1.20;1.10;;;;;;;;;;5072112;28;20414;-72
2021/06/12 13:35:20;;;;;;;1.47;1.37;;;;;;;;;;5071514;28;20836;-68
2021/06/12 13:38:00;;;;;;;1.73;1.53;;;;;;;;;;5071880;28;20422;-69
2021/06/12 13:40:26;;;;;;;2.40;1.33;;;;;;;;;;5072001;28;20432;-69
2021/06/12 13:42:52;;;;;;;3.77;1.90;;;;;;;;;;5071769;28;20398;-69
2021/06/12 13:45:18;;;;;;;1.43;1.33;;;;;;;;;;5071709;28;20437;-70
2021/06/12 13:47:44;;;;;;;1.93;1.23;;;;;;;;;;5071691;28;20407;-70
2021/06/12 13:50:11;;;;;;;1.60;1.03;;;;;;;;;;5071573;28;20927;-67
2021/06/12 13:52:37;;;;;;;1.53;1.40;;;;;;;;;;5071790;28;20402;-69
2021/06/12 13:55:08;;;;;;;2.97;1.57;;;;;;;;;;5070285;28;20418;-70
2021/06/12 13:57:35;;;;;;;2.30;1.40;;;;;;;;;;5071684;28;20871;-70
2021/06/12 14:00:01;;;;;;;1.17;1.00;;;;;;;;;;5071552;28;20510;-69
2021/06/12 14:02:27;;;;;;;1.30;1.20;;;;;;;;;;5071512;28;20417;-69
2021/06/12 14:04:53;;;;;;;1.90;1.70;;;;;;;;;;5071122;28;20461;-70
2021/06/12 14:07:19;;;;;;;2.33;1.30;;;;;;;;;;5072156;28;20923;-69
2021/06/12 14:09:45;;;;;;;3.23;1.40;;;;;;;;;;5072121;28;20856;-70
2021/06/12 14:12:11;;;;;;;1.30;1.20;;;;;;;;;;5071574;28;20463;-68
2021/06/12 14:14:37;;;;;;;2.27;1.40;;;;;;;;;;5071284;28;20421;-68
2021/06/12 14:17:06;;;;;;;1.40;1.30;;;;;;;;;;5071601;28;20422;-69
2021/06/12 14:19:33;;;;;;;2.17;1.93;;;;;;;;;;5071000;28;20500;-68
2021/06/12 14:21:59;;;;;;;1.40;1.30;;;;;;;;;;5072044;28;20411;-70
2021/06/12 14:24:25;;;;;;;1.40;1.30;;;;;;;;;;5072108;28;20779;-67
2021/06/12 14:26:52;;;;;;;1.80;1.40;;;;;;;;;;5075855;28;20505;-69
2021/06/12 14:29:18;;;;;;;2.17;1.50;;;;;;;;;;5076180;28;20414;-68
2021/06/12 14:31:45;;;;;;;1.47;1.37;;;;;;;;;;5075856;28;20417;-71
2021/06/12 14:34:12;;;;;;;1.70;1.60;;;;;;;;;;5075832;28;20750;-68
2021/06/12 14:36:39;;;;;;;5.70;1.40;;;;;;;;;;5075270;28;20462;-68
2021/06/12 14:39:09;;;;;;;1.23;1.17;;;;;;;;;;5075146;28;20414;-68
2021/06/12 14:41:42;;;;;;;1.30;1.20;;;;;;;;;;5075485;28;20477;-68
2021/06/12 14:44:09;;;;;;;1.73;1.20;;;;;;;;;;5075067;28;20474;-68
2021/06/12 14:46:35;;;;;;;1.53;1.33;;;;;;;;;;5075056;28;20517;-68
2021/06/12 14:52:05;;;;;;;1.73;1.23;;;;;;;;;;5075061;28;20520;-69
2021/06/12 14:54:31;;;;;;;2.07;0.90;;;;;;;;;;5073574;28;20793;-68
2021/06/12 14:56:57;;;;;;;1.97;1.20;;;;;;;;;;5075039;28;20446;-68
2021/06/12 14:59:26;;;;;;;1.10;0.90;;;;;;;;;;5074861;28;20753;-69
2021/06/12 15:01:52;;;;;;;1.20;0.97;;;;;;;;;;5074497;28;20414;-69
2021/06/12 15:04:18;;;;;;;1.03;0.90;;;;;;;;;;5073164;28;20473;-69
2021/06/12 15:06:44;;;;;;;1.13;1.03;;;;;;;;;;5074644;28;20452;-70
2021/06/12 15:09:10;;;;;;;1.20;0.67;;;;;;;;;;5074628;28;20406;-69
2021/06/12 15:11:36;;;;;;;1.10;1.00;;;;;;;;;;5074472;28;20416;-73
2021/06/12 15:14:02;;;;;;;3.50;0.70;;;;;;;;;;5074565;28;20899;-69
2021/06/12 15:16:28;;;;;;;1.40;0.70;;;;;;;;;;5074492;28;20415;-69
2021/06/12 15:21:58;;;;;;;1.10;1.10;;;;;;;;;;5074154;28;20770;-69
2021/06/12 15:24:25;;;;;;;1.40;1.10;;;;;;;;;;5074387;28;20546;-70
2021/06/12 15:26:51;;;;;;;1.00;0.90;;;;;;;;;;5074145;28;20429;-69
2021/06/12 15:29:17;;;;;;;1.77;1.10;;;;;;;;;;5074319;28;20901;-69
2021/06/12 15:31:44;;;;;;;1.93;1.20;;;;;;;;;;5073998;28;20406;-71
2021/06/12 15:37:13;;;;;;;1.03;0.90;;;;;;;;;;5073687;28;20529;-71
2021/06/12 15:39:39;;;;;;;0.70;0.60;;;;;;;;;;5074132;28;20407;-70
2021/06/12 15:42:05;;;;;;;1.20;1.10;;;;;;;;;;5073739;28;20826;-69
2021/06/12 15:44:31;;;;;;;1.00;0.80;;;;;;;;;;5074193;28;20493;-71
2021/06/12 15:46:57;;;;;;;0.87;0.70;;;;;;;;;;5074018;28;20786;-70
2021/06/12 15:49:23;;;;;;;0.60;0.60;;;;;;;;;;5073764;28;20935;-69
2021/06/12 15:51:49;;;;;;;0.83;0.80;;;;;;;;;;5074032;28;20411;-69
2021/06/12 15:54:15;;;;;;;1.17;0.80;;;;;;;;;;5072862;28;20885;-69
2021/06/12 15:56:41;;;;;;;0.77;0.73;;;;;;;;;;5073583;28;20409;-72
2021/06/12 15:59:07;;;;;;;0.70;0.70;;;;;;;;;;5073983;28;20484;-71
2021/06/12 16:01:33;;;;;;;0.70;0.60;;;;;;;;;;5074033;28;20420;-69
2021/06/12 16:07:04;;;;;;;1.47;0.90;;;;;;;;;;5073690;28;20778;-69
2021/06/12 16:09:30;;;;;;;2.93;1.00;;;;;;;;;;5073787;28;20426;-69
2021/06/12 16:11:56;;;;;;;2.00;0.50;;;;;;;;;;5073675;28;20829;-70
2021/06/12 16:14:22;;;;;;;2.30;0.70;;;;;;;;;;5073739;28;20398;-68
2021/06/12 16:16:48;;;;;;;1.27;0.80;;;;;;;;;;5072218;28;20433;-70